KLNN

Willoughby Lost Nation Municipal Airport

Willoughby, Ohio, USA
METAR KLNN 151915Z AUTO 23014G25KT 4SM SCT028 BKN044 OVC050 M04/M08 A2983 RMK AO1 T10401076
Observed Flight Rules
Dec-15 @ 19:15 UTC (24 minutes ago) Marginal Visual Flight Rules
Wind Visibility Clouds
230° at 14 knots
 Gusting to 25 knots
4 miles
  • Scattered at 2,800' AGL
  • Broken at 4,400' AGL
  • Overcast at 5,000' AGL
Temperatures Readings
Current -4°C / 25°F
Dewpoint -8°C / 18°F
Humidity 74%
Altimeter 29.83" Hg
Pressure 1010 hPa
Elevation 191
METAR KLNN 151915Z AUTO 23014G25KT 4SM SCT028 BKN044 OVC050 M04/M08 A2983 RMK AO1 T10401076
Observed Flight Rules
Dec-15 @ 19:15 UTC
(24 minutes ago)
MVFR
Wind Visibility
230° at 14 knots
 Gusting to 25 knots
4 miles
Clouds
  • Scattered at 2,800' AGL
  • Broken at 4,400' AGL
  • Overcast at 5,000' AGL
Temperature Dewpoint
-4°C / 25°F -8°C / 18°F
Humidity Altimeter Pressure
74% 29.83" Hg 1010 hPa